Time;durP1;ratioP1;P1;durP2;ratioP2;P2;SDS_P1;SDS_P2;PMS_P1;PMS_P2;Temp;Humidity;BMP_temperature;BMP_pressure;BME280_temperature;BME280_humidity;BME280_pressure;Samples;Min_cycle;Max_cycle;Signal;HPM_P1;HPM_P2
2021/04/16 00:02:06;;;;;;;;;;;2.40;1.00;;;;;;5069837;28;19916;-67
2021/04/16 00:04:32;;;;;;;;;;;2.30;1.00;;;;;;5070116;28;19912;-67
2021/04/16 00:06:58;;;;;;;;;;;2.30;1.00;;;;;;5069597;28;20342;-67
2021/04/16 00:09:24;;;;;;;;;;;2.20;1.00;;;;;;5069365;28;19916;-67
2021/04/16 00:11:50;;;;;;;;;;;2.20;1.00;;;;;;5070123;28;19912;-67
2021/04/16 00:14:16;;;;;;;;;;;;;;;;;;5069576;28;19990;-67
2021/04/16 00:16:42;;;;;;;;;;;;;;;;;;5068474;28;20291;-67
2021/04/16 00:19:07;;;;;;;;;;;;;;;;;;5068336;28;19928;-67
2021/04/16 00:21:33;;;;;;;;;;;;;;;;;;5069670;28;19908;-67
2021/04/16 00:23:59;;;;;;;;;;;;;;;;;;5069692;28;20007;-67
2021/04/16 00:26:25;;;;;;;;;;;;;;;;;;5069371;28;19915;-67
2021/04/16 00:28:51;;;;;;;;;;;;;;;;;;5069783;28;20142;-67
2021/04/16 00:31:17;;;;;;;;;;;;;;;;;;5068487;28;19916;-67
2021/04/16 00:33:43;;;;;;;;;;;;;;;;;;5069709;28;19912;-67
2021/04/16 00:36:09;;;;;;;;;;;;;;;;;;5069547;28;20257;-67
2021/04/16 00:38:35;;;;;;;;;;;;;;;;;;5070027;28;19909;-67
2021/04/16 00:41:00;;;;;;;;;;;;;;;;;;5068613;28;20326;-67
2021/04/16 00:43:26;;;;;;;;;;;;;;;;;;5069559;28;19909;-67
2021/04/16 00:45:52;;;;;;;;;;;;;;;;;;5067360;28;20315;-67
2021/04/16 00:48:18;;;;;;;;;;;;;;;;;;5069153;28;19913;-67
2021/04/16 00:50:44;;;;;;;;;;;;;;;;;;5068206;28;19912;-67
2021/04/16 00:53:10;;;;;;;;;;;;;;;;;;5069293;28;19924;-67
2021/04/16 00:55:36;;;;;;;;;;;;;;;;;;5068488;28;20319;-67
2021/04/16 00:58:02;;;;;;;;;;;;;;;;;;5069327;28;19920;-67
2021/04/16 01:00:28;;;;;;;;;;;;;;;;;;5066877;28;19912;-67
2021/04/16 01:02:54;;;;;;;;;;;;;;;;;;5069148;28;19920;-67
2021/04/16 01:05:20;;;;;;;;;;;;;;;;;;5068595;28;20438;-67
2021/04/16 01:07:46;;;;;;;;;;;;;;;;;;5069565;28;20007;-67
2021/04/16 01:10:12;;;;;;;;;;;1.60;1.00;;;;;;5068230;28;20315;-67
2021/04/16 01:12:38;;;;;;;;;;;1.70;1.00;;;;;;5069113;28;19908;-67
2021/04/16 01:15:15;;;;;;;;;;;1.50;1.00;;;;;;5066859;28;19913;-67
2021/04/16 01:17:42;;;;;;;;;;;1.50;1.00;;;;;;5068541;28;19966;-67
2021/04/16 01:20:13;;;;;;;;;;;1.50;1.00;;;;;;5067955;28;19958;-67
2021/04/16 01:22:42;;;;;;;;;;;1.50;1.00;;;;;;5069162;28;19909;-67
2021/04/16 01:25:09;;;;;;;;;;;1.50;1.00;;;;;;5068280;28;19913;-67
2021/04/16 01:27:35;;;;;;;;;;;;;;;;;;5068975;28;19919;-67
2021/04/16 01:30:06;;;;;;;;;;;1.30;1.00;;;;;;5066251;28;19916;-67
2021/04/16 01:32:32;;;;;;;;;;;1.30;1.00;;;;;;5069260;28;19938;-67
2021/04/16 01:34:57;;;;;;;;;;;1.30;1.00;;;;;;5068636;28;19931;-67
2021/04/16 01:37:26;;;;;;;;;;;1.30;1.00;;;;;;5068798;28;19913;-67
2021/04/16 01:39:51;;;;;;;;;;;1.20;1.00;;;;;;5067733;28;19919;-67
2021/04/16 01:42:17;;;;;;;;;;;1.30;1.00;;;;;;5068570;28;19912;-67
2021/04/16 01:44:43;;;;;;;;;;;1.30;1.00;;;;;;5067336;28;19938;-67
2021/04/16 01:47:10;;;;;;;;;;;1.30;1.00;;;;;;5068487;28;20248;-67
2021/04/16 01:49:37;;;;;;;;;;;1.20;1.00;;;;;;5067698;28;19912;-67
2021/04/16 01:52:03;;;;;;;;;;;1.20;1.00;;;;;;5068572;28;19942;-67
2021/04/16 01:54:32;;;;;;;;;;;1.10;1.00;;;;;;5068813;28;20230;-67
2021/04/16 01:57:02;;;;;;;;;;;1.00;1.00;;;;;;5068364;28;20011;-67
2021/04/16 01:59:29;;;;;;;;;;;1.00;1.00;;;;;;5066558;28;19909;-67
2021/04/16 02:01:55;;;;;;;;;;;1.00;1.00;;;;;;5068264;28;20238;-67
2021/04/16 02:04:20;;;;;;;;;;;1.00;1.00;;;;;;5068454;28;19919;-68
2021/04/16 02:06:46;;;;;;;;;;;1.00;1.00;;;;;;5068566;28;19920;-67
2021/04/16 02:09:14;;;;;;;;;;;0.80;27.80;;;;;;5067618;28;19908;-67
2021/04/16 02:11:40;;;;;;;;;;;0.80;26.20;;;;;;5067647;28;19917;-67
2021/04/16 02:14:07;;;;;;;;;;;0.90;37.70;;;;;;5067972;28;20373;-67
2021/04/16 02:16:33;;;;;;;;;;;0.80;99.90;;;;;;5066431;28;19928;-67
2021/04/16 02:18:58;;;;;;;;;;;0.80;99.90;;;;;;5067583;28;19909;-67
2021/04/16 02:21:24;;;;;;;;;;;0.80;99.90;;;;;;5068004;28;19935;-67
2021/04/16 02:23:49;;;;;;;;;;;0.80;99.90;;;;;;5068230;28;19913;-67
2021/04/16 02:26:15;;;;;;;;;;;0.80;99.90;;;;;;5067802;28;19912;-67
2021/04/16 02:28:40;;;;;;;;;;;0.70;99.90;;;;;;5069139;28;19912;-67
2021/04/16 02:31:06;;;;;;;;;;;0.70;99.90;;;;;;5068883;28;20148;-67
2021/04/16 02:33:31;;;;;;;;;;;0.70;1.00;;;;;;5071887;28;19913;-67
2021/04/16 02:35:57;;;;;;;;;;;0.60;1.00;;;;;;5071658;28;19916;-67
2021/04/16 02:38:22;;;;;;;;;;;0.60;1.00;;;;;;5072012;28;19908;-67
2021/04/16 02:40:48;;;;;;;;;;;0.60;1.00;;;;;;5070696;28;19986;-67
2021/04/16 02:43:13;;;;;;;;;;;0.60;1.00;;;;;;5071424;28;19913;-67
2021/04/16 02:45:39;;;;;;;;;;;0.60;1.00;;;;;;5069639;28;19974;-67
2021/04/16 02:48:05;;;;;;;;;;;0.50;18.00;;;;;;5071506;28;19944;-67
2021/04/16 02:50:31;;;;;;;;;;;0.50;6.70;;;;;;5070633;28;19916;-67
2021/04/16 02:52:57;;;;;;;;;;;0.50;99.90;;;;;;5071632;28;20341;-67
2021/04/16 02:55:22;;;;;;;;;;;0.50;99.90;;;;;;5071035;28;20000;-67
2021/04/16 02:57:47;;;;;;;;;;;0.50;99.90;;;;;;5053668;28;19912;-67
2021/04/16 03:00:17;;;;;;;;;;;0.50;99.90;;;;;;5068767;28;20018;-67
2021/04/16 03:02:42;;;;;;;;;;;0.50;99.90;;;;;;5071919;28;19913;-67
2021/04/16 03:05:09;;;;;;;;;;;0.50;99.90;;;;;;5070654;28;19919;-67
2021/04/16 03:07:34;;;;;;;;;;;0.50;99.90;;;;;;5071113;28;19915;-67
2021/04/16 03:10:00;;;;;;;;;;;0.40;99.90;;;;;;5070044;28;20273;-67
2021/04/16 03:12:25;;;;;;;;;;;0.40;99.90;;;;;;5071078;28;19977;-67
2021/04/16 03:14:51;;;;;;;;;;;0.40;99.90;;;;;;5069117;28;19944;-67
2021/04/16 03:17:16;;;;;;;;;;;0.40;99.90;;;;;;5070554;28;19912;-67
2021/04/16 03:19:42;;;;;;;;;;;0.30;1.00;;;;;;5070020;28;19912;-67
2021/04/16 03:22:07;;;;;;;;;;;0.30;1.00;;;;;;5071352;28;20349;-67
2021/04/16 03:24:33;;;;;;;;;;;0.30;1.00;;;;;;5070687;28;19909;-67
2021/04/16 03:26:58;;;;;;;;;;;0.30;1.00;;;;;;5070579;28;19909;-67
2021/04/16 03:29:24;;;;;;;;;;;0.30;1.00;;;;;;5068973;28;19955;-67
2021/04/16 03:31:49;;;;;;;;;;;0.30;1.00;;;;;;5071389;28;20339;-67
2021/04/16 03:34:15;;;;;;;;;;;0.30;1.00;;;;;;5070875;28;19908;-67
2021/04/16 03:36:40;;;;;;;;;;;0.30;9.30;;;;;;5070501;28;19913;-67
2021/04/16 03:39:06;;;;;;;;;;;0.30;96.30;;;;;;5069522;28;20020;-67
2021/04/16 03:41:31;;;;;;;;;;;0.20;99.90;;;;;;5069386;28;19917;-67
2021/04/16 03:43:57;;;;;;;;;;;0.10;99.90;;;;;;5070460;28;19909;-67
2021/04/16 03:46:22;;;;;;;;;;;0.10;1.00;;;;;;5068519;28;20004;-67
2021/04/16 03:48:48;;;;;;;;;;;0.10;1.00;;;;;;5070791;28;19925;-67
2021/04/16 03:51:14;;;;;;;;;;;0.10;1.00;;;;;;5069512;28;20010;-67
2021/04/16 03:53:40;;;;;;;;;;;;;;;;;;5070460;28;19913;-67
2021/04/16 03:56:07;;;;;;;;;;;;;;;;;;5070412;28;19913;-67
2021/04/16 03:58:33;;;;;;;;;;;0.00;99.90;;;;;;5070608;28;20247;-67
2021/04/16 04:00:59;;;;;;;;;;;0.00;99.90;;;;;;5067676;28;20415;-67
2021/04/16 04:03:24;;;;;;;;;;;0.00;99.90;;;;;;5070527;28;19913;-67
2021/04/16 04:05:50;;;;;;;;;;;0.10;99.90;;;;;;5069848;28;19923;-67
2021/04/16 04:08:15;;;;;;;;;;;0.00;1.00;;;;;;5070132;28;19908;-67
2021/04/16 04:10:41;;;;;;;;;;;0.10;1.00;;;;;;5069086;28;19982;-67
2021/04/16 04:13:08;;;;;;;;;;;0.00;1.00;;;;;;5069850;28;19921;-67
2021/04/16 04:15:34;;;;;;;;;;;0.00;1.00;;;;;;5067833;28;20048;-67
2021/04/16 04:17:59;;;;;;;;;;;0.00;1.00;;;;;;5070191;28;20003;-67
2021/04/16 04:20:25;;;;;;;;;;;;;;;;;;5069009;28;19908;-67
2021/04/16 04:22:51;;;;;;;;;;;;;;;;;;5051692;28;19908;-67
2021/04/16 04:25:17;;;;;;;;;;;;;;;;;;5069129;28;20349;-67
2021/04/16 04:27:43;;;;;;;;;;;;;;;;;;5069919;28;20023;-67
2021/04/16 04:30:09;;;;;;;;;;;;;;;;;;5066915;28;19920;-67
2021/04/16 04:32:35;;;;;;;;;;;;;;;;;;5069775;28;19916;-67
2021/04/16 04:35:01;;;;;;;;;;;;;;;;;;5069435;28;19935;-67
2021/04/16 04:37:26;;;;;;;;;;;;;;;;;;5067965;28;19924;-67
2021/04/16 04:39:52;;;;;;;;;;;;;;;;;;5066117;28;19919;-67
2021/04/16 04:42:18;;;;;;;;;;;;;;;;;;5069519;28;19909;-67
2021/04/16 04:44:44;;;;;;;;;;;;;;;;;;5049526;28;20012;-67
2021/04/16 04:47:10;;;;;;;;;;;;;;;;;;5068978;28;19913;-67
2021/04/16 04:49:36;;;;;;;;;;;;;;;;;;5066927;28;19994;-67
2021/04/16 04:52:02;;;;;;;;;;;;;;;;;;5068199;28;19912;-67
2021/04/16 04:54:28;;;;;;;;;;;;;;;;;;5068909;28;19992;-67
2021/04/16 04:56:53;;;;;;;;;;;;;;;;;;5069253;28;19966;-67
2021/04/16 04:59:19;;;;;;;;;;;;;;;;;;5067504;28;20258;-67
2021/04/16 05:01:45;;;;;;;;;;;;;;;;;;5067398;28;19908;-67
2021/04/16 05:04:11;;;;;;;;;;;;;;;;;;5066542;28;19920;-66
2021/04/16 05:06:37;;;;;;;;;;;;;;;;;;5057042;28;20006;-65
2021/04/16 05:09:03;;;;;;;;;;;;;;;;;;5059364;28;19926;-65
2021/04/16 05:11:29;;;;;;;;;;;;;;;;;;5064904;28;19978;-66
2021/04/16 05:13:55;;;;;;;;;;;;;;;;;;5056852;28;19920;-63
2021/04/16 05:16:20;;;;;;;;;;;;;;;;;;5063924;28;20418;-63
2021/04/16 05:18:48;;;;;;;;;;;;;;;;;;5059974;28;20456;-64
2021/04/16 05:21:14;;;;;;;;;;;;;;;;;;5054828;28;19924;-64
2021/04/16 05:23:40;;;;;;;;;;;;;;;;;;5057220;28;19913;-64
2021/04/16 05:26:06;;;;;;;;;;;;;;;;;;5057921;28;20464;-66
2021/04/16 05:28:32;;;;;;;;;;;;;;;;;;5063881;28;20386;-63
2021/04/16 05:30:58;;;;;;;;;;;;;;;;;;5054613;28;19990;-64
2021/04/16 05:33:24;;;;;;;;;;;;;;;;;;5064236;28;19916;-64
2021/04/16 05:35:50;;;;;;;;;;;;;;;;;;5067119;28;19917;-64
2021/04/16 05:38:16;;;;;;;;;;;;;;;;;;5057525;28;19912;-65
2021/04/16 05:40:41;;;;;;;;;;;;;;;;;;5057376;28;20255;-64
2021/04/16 05:43:07;;;;;;;;;;;7.60;99.90;;;;;;5055448;28;19943;-66
2021/04/16 05:45:33;;;;;;;;;;;;;;;;;;5058067;28;19999;-68
2021/04/16 05:47:58;;;;;;;;;;;9.40;99.90;;;;;;5059983;28;20428;-68
2021/04/16 05:50:24;;;;;;;;;;;10.30;99.90;;;;;;5059452;28;19925;-67
2021/04/16 05:52:49;;;;;;;;;;;10.80;99.90;;;;;;5057641;28;20291;-68
2021/04/16 05:55:15;;;;;;;;;;;11.30;98.00;;;;;;5068237;28;19924;-69
2021/04/16 05:57:40;;;;;;;;;;;11.70;95.40;;;;;;5050678;28;19999;-68
2021/04/16 06:00:07;;;;;;;;;;;11.70;94.00;;;;;;5063089;28;19922;-68
2021/04/16 06:02:33;;;;;;;;;;;12.30;92.00;;;;;;5073057;28;19913;-68
2021/04/16 06:05:01;;;;;;;;;;;12.30;90.40;;;;;;5063535;28;19916;-67
2021/04/16 06:07:27;;;;;;;;;;;12.30;88.30;;;;;;5068757;28;19987;-67
2021/04/16 06:09:53;;;;;;;;;;;12.60;85.70;;;;;;5065381;28;19960;-67
2021/04/16 06:12:19;;;;;;;;;;;13.30;83.30;;;;;;5065181;28;19913;-68
2021/04/16 06:14:45;;;;;;;;;;;13.70;80.60;;;;;;5058182;28;19917;-68
2021/04/16 06:17:11;;;;;;;;;;;14.00;80.10;;;;;;5063140;28;19926;-68
2021/04/16 06:19:37;;;;;;;;;;;14.20;71.10;;;;;;5070091;28;19952;-67
2021/04/16 06:22:03;;;;;;;;;;;14.80;67.30;;;;;;5066713;28;19967;-68
2021/04/16 06:24:28;;;;;;;;;;;15.00;64.00;;;;;;5063815;28;19913;-68
2021/04/16 06:26:54;;;;;;;;;;;15.30;61.80;;;;;;5063186;28;19939;-67
2021/04/16 06:29:19;;;;;;;;;;;16.20;60.30;;;;;;5063970;28;19917;-68
2021/04/16 06:31:45;;;;;;;;;;;14.90;58.40;;;;;;5064440;28;20003;-67
2021/04/16 06:34:11;;;;;;;;;;;14.60;59.80;;;;;;5068836;28;19921;-68
2021/04/16 06:36:36;;;;;;;;;;;14.70;60.30;;;;;;5064158;28;19916;-67
2021/04/16 06:39:02;;;;;;;;;;;15.70;58.20;;;;;;5062774;28;19913;-68
2021/04/16 06:41:30;;;;;;;;;;;16.00;57.90;;;;;;5057389;28;19916;-67
2021/04/16 06:43:57;;;;;;;;;;;16.50;56.30;;;;;;5067860;28;19913;-67
2021/04/16 06:46:28;;;;;;;;;;;17.10;55.90;;;;;;5067674;28;19959;-67
2021/04/16 06:48:59;;;;;;;;;;;18.00;51.20;;;;;;5061597;28;19961;-68
2021/04/16 06:51:25;;;;;;;;;;;18.50;99.90;;;;;;5064606;28;19916;-68
2021/04/16 06:53:54;;;;;;;;;;;18.50;99.90;;;;;;5062754;28;20066;-67
2021/04/16 06:56:22;;;;;;;;;;;18.10;99.90;;;;;;5052030;28;20011;-68
2021/04/16 06:58:58;;;;;;;;;;;19.10;99.90;;;;;;5063060;28;19917;-69
2021/04/16 07:01:24;;;;;;;;;;;19.90;99.90;;;;;;5076371;28;20007;-67
2021/04/16 07:03:54;;;;;;;;;;;19.50;99.90;;;;;;5091975;28;20384;-67
2021/04/16 07:06:24;;;;;;;;;;;18.50;99.90;;;;;;5051049;28;20028;-68
2021/04/16 07:09:04;;;;;;;;;;;18.10;93.20;;;;;;5056144;28;19995;-69
2021/04/16 07:11:31;;;;;;;;;;;17.20;79.70;;;;;;5062093;28;19959;-67
2021/04/16 07:13:58;;;;;;;;;;;16.40;73.50;;;;;;5050281;28;20321;-67
2021/04/16 07:16:24;;;;;;;;;;;17.20;76.20;;;;;;5050045;28;19974;-66
2021/04/16 07:18:53;;;;;;;;;;;17.80;77.30;;;;;;5066680;28;19932;-68
2021/04/16 07:21:20;;;;;;;;;;;18.90;81.30;;;;;;5055789;28;20007;-67
2021/04/16 07:23:50;;;;;;;;;;;19.30;86.70;;;;;;5057786;28;20258;-65
2021/04/16 07:26:16;;;;;;;;;;;20.80;87.20;;;;;;5053807;28;20340;-65
2021/04/16 07:28:44;;;;;;;;;;;20.10;84.60;;;;;;5036191;28;19913;-66
2021/04/16 07:31:24;;;;;;;;;;;20.30;73.60;;;;;;5054211;28;19917;-67
2021/04/16 07:33:50;;;;;;;;;;;19.70;67.90;;;;;;5058725;28;19913;-65
2021/04/16 07:36:24;;;;;;;;;;;17.80;49.00;;;;;;5058278;28;19920;-66
2021/04/16 07:39:07;;;;;;;;;;;18.50;51.60;;;;;;5060602;28;20553;-67
2021/04/16 07:41:36;;;;;;;;;;;19.60;55.40;;;;;;5056169;28;19923;-64
2021/04/16 07:44:02;;;;;;;;;;;20.40;55.30;;;;;;5057484;28;19913;-66
2021/04/16 07:46:28;;;;;;;;;;;21.30;55.00;;;;;;5060261;28;20023;-66
2021/04/16 07:49:13;;;;;;;;;;;18.80;44.20;;;;;;5053863;28;20381;-67
2021/04/16 07:51:39;;;;;;;;;;;17.20;37.30;;;;;;5057448;28;19923;-66
2021/04/16 07:54:16;;;;;;;;;;;15.00;35.30;;;;;;5061306;28;19916;-66
2021/04/16 07:56:42;;;;;;;;;;;12.50;38.10;;;;;;5054198;28;19923;-67
2021/04/16 07:59:16;;;;;;;;;;;11.40;35.70;;;;;;5058464;28;19992;-67
2021/04/16 08:01:43;;;;;;;;;;;12.00;41.20;;;;;;5062653;28;19963;-65
2021/04/16 08:04:11;;;;;;;;;;;12.40;43.10;;;;;;5066171;28;19920;-66
2021/04/16 08:06:38;;;;;;;;;;;11.60;40.10;;;;;;5054877;28;20361;-67
2021/04/16 08:09:06;;;;;;;;;;;10.70;35.60;;;;;;5056146;28;20618;-67
2021/04/16 08:11:32;;;;;;;;;;;10.30;36.20;;;;;;5057163;28;20338;-66
2021/04/16 08:13:59;;;;;;;;;;;9.70;38.90;;;;;;5058073;28;20006;-66
2021/04/16 08:16:36;;;;;;;;;;;9.40;39.90;;;;;;5054912;28;20007;-66
2021/04/16 08:19:04;;;;;;;;;;;9.00;45.60;;;;;;5057517;28;20019;-66
2021/04/16 08:21:38;;;;;;;;;;;9.90;51.00;;;;;;5058424;28;19943;-68
2021/04/16 08:24:23;;;;;;;;;;;11.20;55.90;;;;;;5072240;28;19913;-67
2021/04/16 08:27:01;;;;;;;;;;;12.40;62.40;;;;;;5073983;28;19935;-67
2021/04/16 08:29:38;;;;;;;;;;;13.40;63.40;;;;;;5074035;28;20094;-66
2021/04/16 08:32:04;;;;;;;;;;;15.00;76.20;;;;;;5075084;28;19919;-67
2021/04/16 08:34:37;;;;;;;;;;;17.10;67.10;;;;;;5077708;28;19930;-67
2021/04/16 08:37:02;;;;;;;;;;;18.50;32.80;;;;;;5077579;28;19967;-67
2021/04/16 08:39:31;;;;;;;;;;;19.50;87.70;;;;;;5077386;28;19956;-67
2021/04/16 08:41:59;;;;;;;;;;;19.40;91.10;;;;;;5073689;28;19971;-67
2021/04/16 08:44:27;;;;;;;;;;;20.50;93.70;;;;;;5076415;28;19935;-67
2021/04/16 08:46:54;;;;;;;;;;;22.70;94.40;;;;;;5073055;28;20397;-68
2021/04/16 08:49:20;;;;;;;;;;;25.60;99.90;;;;;;5075013;28;19954;-67
2021/04/16 08:51:47;;;;;;;;;;;26.20;99.90;;;;;;5074344;28;20389;-67
2021/04/16 08:54:19;;;;;;;;;;;21.40;99.90;;;;;;5075413;28;19916;-67
2021/04/16 08:57:05;;;;;;;;;;;16.80;59.40;;;;;;5071440;28;19923;-67
2021/04/16 08:59:34;;;;;;;;;;;14.30;43.00;;;;;;5074711;28;20596;-67
2021/04/16 09:02:18;;;;;;;;;;;12.60;24.70;;;;;;5072279;28;19923;-67
2021/04/16 09:04:43;;;;;;;;;;;11.60;99.90;;;;;;5074336;28;20432;-66
2021/04/16 09:07:26;;;;;;;;;;;10.60;99.90;;;;;;5074728;28;19963;-67
2021/04/16 09:09:55;;;;;;;;;;;10.10;99.90;;;;;;5057850;28;20296;-67
2021/04/16 09:12:38;;;;;;;;;;;9.80;99.90;;;;;;5061034;28;20247;-67
2021/04/16 09:15:05;;;;;;;;;;;9.80;99.90;;;;;;5050723;28;19917;-67
2021/04/16 09:17:59;;;;;;;;;;;9.90;99.90;;;;;;5057037;28;19920;-67
2021/04/16 09:20:26;;;;;;;;;;;9.90;99.90;;;;;;5054418;28;19923;-67
2021/04/16 09:22:53;;;;;;;;;;;9.80;99.90;;;;;;5063654;28;19912;-67
2021/04/16 09:25:37;;;;;;;;;;;9.80;99.90;;;;;;5052058;28;19977;-67
2021/04/16 09:28:20;;;;;;;;;;;10.10;99.90;;;;;;5060661;28;20015;-67
2021/04/16 09:30:46;;;;;;;;;;;10.50;99.90;;;;;;5056719;28;19931;-67
2021/04/16 09:33:23;;;;;;;;;;;10.60;99.90;;;;;;5068423;28;19919;-68
2021/04/16 09:36:06;;;;;;;;;;;10.60;99.90;;;;;;5064370;28;19935;-67
2021/04/16 09:38:50;;;;;;;;;;;10.40;99.90;;;;;;5054775;28;19913;-67
2021/04/16 09:41:19;;;;;;;;;;;10.20;99.90;;;;;;5068470;28;19919;-67
2021/04/16 09:43:46;;;;;;;;;;;9.80;99.90;;;;;;5077957;28;19999;-67
2021/04/16 09:46:30;;;;;;;;;;;9.60;99.90;;;;;;5080627;28;20412;-67
2021/04/16 09:48:57;;;;;;;;;;;9.60;99.90;;;;;;5070863;28;19954;-67
2021/04/16 09:51:31;;;;;;;;;;;9.60;99.90;;;;;;5079758;28;19920;-67
2021/04/16 09:54:23;;;;;;;;;;;9.40;99.90;;;;;;5083245;28;19923;-67
2021/04/16 09:57:01;;;;;;;;;;;9.20;99.90;;;;;;5079043;28;19912;-67
2021/04/16 09:59:29;;;;;;;;;;;8.80;99.90;;;;;;5077887;28;20023;-67
2021/04/16 10:02:16;;;;;;;;;;;9.00;99.90;;;;;;5076404;28;19919;-67
2021/04/16 10:04:49;;;;;;;;;;;9.10;99.90;;;;;;5079131;28;19999;-67
2021/04/16 10:07:15;;;;;;;;;;;9.10;99.90;;;;;;5079255;28;19916;-67
2021/04/16 10:09:41;;;;;;;;;;;9.30;99.90;;;;;;5055924;28;19917;-67
2021/04/16 10:12:16;;;;;;;;;;;9.20;99.90;;;;;;5073602;28;19928;-68
2021/04/16 10:14:42;;;;;;;;;;;;;;;;;;5078499;28;19969;-68
2021/04/16 10:17:10;;;;;;;;;;;9.10;1.00;;;;;;5073296;28;19921;-68
2021/04/16 10:19:36;;;;;;;;;;;;;;;;;;5073520;28;19920;-68
2021/04/16 10:22:02;;;;;;;;;;;;;;;;;;5080990;28;20333;-68
2021/04/16 10:36:27;;;;;;;;;;;9.90;99.90;;;;;;5068486;28;19912;-68
2021/04/16 10:39:02;;;;;;;;;;;9.90;99.90;;;;;;5050030;28;20373;-68
2021/04/16 10:47:54;;;;;;;;;;;9.50;99.90;;;;;;4977724;28;20267;-67
2021/04/16 12:39:03;;;;;;;;;;;9.90;99.90;;;;;;5076669;28;19928;-68
2021/04/16 12:41:39;;;;;;;;;;;9.80;99.90;;;;;;5060152;28;20002;-67
2021/04/16 12:44:05;;;;;;;;;;;9.60;99.90;;;;;;5066348;28;19928;-68
2021/04/16 12:46:36;;;;;;;;;;;9.80;99.90;;;;;;5072138;28;19920;-69
2021/04/16 12:49:02;;;;;;;;;;;10.10;99.90;;;;;;5063165;28;19912;-68
2021/04/16 12:51:27;;;;;;;;;;;10.40;99.90;;;;;;5064058;28;19916;-67
2021/04/16 12:53:53;;;;;;;;;;;10.60;99.90;;;;;;5064452;28;19924;-68
2021/04/16 12:56:21;;;;;;;;;;;10.70;99.90;;;;;;5057737;28;19912;-68
2021/04/16 12:58:47;;;;;;;;;;;10.70;99.90;;;;;;5059481;28;19916;-67
2021/04/16 13:01:22;;;;;;;;;;;10.90;99.90;;;;;;5052602;28;20344;-68
2021/04/16 13:03:50;;;;;;;;;;;11.10;99.90;;;;;;5055171;28;19995;-64
2021/04/16 13:06:23;;;;;;;;;;;10.90;99.90;;;;;;5068049;28;19923;-65
2021/04/16 13:08:48;;;;;;;;;;;10.40;99.90;;;;;;5051908;28;20334;-65
2021/04/16 13:11:14;;;;;;;;;;;10.40;99.90;;;;;;5064154;28;19938;-65
2021/04/16 13:13:39;;;;;;;;;;;10.30;99.90;;;;;;5056939;28;19913;-65
2021/04/16 13:16:05;;;;;;;;;;;10.10;99.90;;;;;;5054280;28;20015;-65
2021/04/16 13:18:32;;;;;;;;;;;10.10;99.90;;;;;;5056796;28;19924;-65
2021/04/16 13:20:58;;;;;;;;;;;10.10;99.90;;;;;;5053413;28;20407;-65
2021/04/16 13:23:23;;;;;;;;;;;10.30;99.90;;;;;;5064095;28;19916;-65
2021/04/16 13:25:49;;;;;;;;;;;10.10;99.90;;;;;;5067962;28;20305;-65
2021/04/16 13:28:14;;;;;;;;;;;10.20;99.90;;;;;;5060225;28;19970;-65
2021/04/16 13:30:40;;;;;;;;;;;10.50;99.90;;;;;;5062356;28;19928;-64
2021/04/16 13:33:12;;;;;;;;;;;10.60;99.90;;;;;;5063336;28;19942;-65
2021/04/16 13:35:43;;;;;;;;;;;10.60;99.90;;;;;;5058513;28;19921;-65
2021/04/16 13:38:12;;;;;;;;;;;10.40;99.90;;;;;;5068286;28;19912;-65
2021/04/16 13:40:37;;;;;;;;;;;10.20;99.90;;;;;;5058128;28;19951;-65
2021/04/16 13:43:03;;;;;;;;;;;10.10;99.90;;;;;;5050627;28;19975;-65
2021/04/16 13:45:28;;;;;;;;;;;10.30;99.90;;;;;;5047162;28;19927;-65
2021/04/16 13:47:54;;;;;;;;;;;10.60;99.90;;;;;;5066835;28;19960;-65
2021/04/16 13:50:19;;;;;;;;;;;10.80;99.90;;;;;;5053417;28;19920;-65
2021/04/16 13:52:45;;;;;;;;;;;11.00;99.90;;;;;;5064284;28;20355;-65
2021/04/16 13:55:12;;;;;;;;;;;10.10;99.90;;;;;;5049665;28;20633;-65
2021/04/16 13:57:38;;;;;;;;;;;10.00;99.90;;;;;;5048925;28;19912;-65
2021/04/16 14:00:05;;;;;;;;;;;9.90;99.90;;;;;;5055636;28;19917;-65
2021/04/16 14:02:34;;;;;;;;;;;9.80;99.90;;;;;;5064349;28;19939;-65
2021/04/16 14:05:03;;;;;;;;;;;10.00;99.90;;;;;;5064005;28;19924;-65
2021/04/16 14:07:29;;;;;;;;;;;9.90;99.90;;;;;;5057156;28;20381;-65
2021/04/16 14:09:54;;;;;;;;;;;9.80;99.90;;;;;;5048359;28;19908;-65
2021/04/16 14:12:20;;;;;;;;;;;10.00;99.90;;;;;;5054351;28;20382;-65
2021/04/16 14:14:46;;;;;;;;;;;10.00;99.90;;;;;;5058812;28;19928;-65
2021/04/16 14:17:13;;;;;;;;;;;10.10;99.90;;;;;;5051869;28;20362;-65
2021/04/16 14:19:38;;;;;;;;;;;10.00;99.90;;;;;;5062658;28;19920;-65
2021/04/16 14:22:04;;;;;;;;;;;10.10;99.90;;;;;;5048226;28;19915;-65
2021/04/16 14:24:30;;;;;;;;;;;10.10;99.90;;;;;;5059224;28;19940;-69
2021/04/16 14:26:56;;;;;;;;;;;10.20;99.90;;;;;;5059645;28;19921;-68
2021/04/16 14:29:21;;;;;;;;;;;10.10;99.90;;;;;;5058278;28;19915;-69
2021/04/16 14:31:47;;;;;;;;;;;10.00;99.90;;;;;;5059868;28;19916;-69
2021/04/16 14:34:17;;;;;;;;;;;9.50;99.90;;;;;;5063025;28;19974;-69
2021/04/16 14:36:43;;;;;;;;;;;9.30;99.90;;;;;;5065258;28;19920;-70
2021/04/16 14:39:09;;;;;;;;;;;9.70;99.90;;;;;;5066665;28;19981;-69
2021/04/16 14:41:36;;;;;;;;;;;9.90;99.90;;;;;;5068597;28;20422;-68
2021/04/16 14:44:02;;;;;;;;;;;9.90;99.90;;;;;;5053105;28;19913;-69
2021/04/16 14:46:28;;;;;;;;;;;9.60;99.90;;;;;;5060471;28;19948;-67
2021/04/16 14:48:53;;;;;;;;;;;9.60;99.90;;;;;;5065868;28;19996;-69
2021/04/16 14:51:19;;;;;;;;;;;9.60;99.90;;;;;;5061282;28;19916;-68
2021/04/16 14:53:45;;;;;;;;;;;9.60;99.90;;;;;;5061088;28;19980;-68
2021/04/16 14:56:11;;;;;;;;;;;9.70;99.90;;;;;;5057251;28;19933;-68
2021/04/16 14:58:44;;;;;;;;;;;9.80;99.90;;;;;;5059782;28;19916;-69
2021/04/16 15:01:10;;;;;;;;;;;9.90;99.90;;;;;;5050078;28;19912;-69
2021/04/16 15:03:35;;;;;;;;;;;10.10;99.90;;;;;;5063497;28;19964;-68
2021/04/16 15:06:06;;;;;;;;;;;10.00;99.90;;;;;;5052550;28;19920;-69
2021/04/16 15:08:46;;;;;;;;;;;9.70;99.90;;;;;;5053599;28;19917;-67
2021/04/16 15:11:13;;;;;;;;;;;9.60;99.90;;;;;;5065736;28;19970;-68
2021/04/16 15:13:39;;;;;;;;;;;9.20;99.90;;;;;;5067606;28;20330;-68
2021/04/16 15:16:11;;;;;;;;;;;8.70;99.90;;;;;;5056305;28;19924;-69
2021/04/16 15:18:37;;;;;;;;;;;8.40;99.90;;;;;;5059651;28;20007;-69
2021/04/16 15:21:04;;;;;;;;;;;8.40;99.90;;;;;;5056056;28;20483;-68
2021/04/16 15:23:29;;;;;;;;;;;8.40;99.90;;;;;;5060791;28;20329;-68
2021/04/16 15:25:56;;;;;;;;;;;8.30;99.90;;;;;;5058482;28;19928;-69
2021/04/16 15:28:25;;;;;;;;;;;8.30;99.90;;;;;;5065144;28;19955;-68
2021/04/16 15:30:52;;;;;;;;;;;8.20;99.90;;;;;;5057127;28;20435;-67
2021/04/16 15:33:20;;;;;;;;;;;8.10;99.90;;;;;;5058142;28;20004;-68
2021/04/16 15:46:56;;;;;;;;;;;8.50;99.90;;;;;;5066863;28;19966;-68
2021/04/16 15:49:23;;;;;;;;;;;8.90;99.90;;;;;;5067957;28;19940;-69
2021/04/16 15:51:49;;;;;;;;;;;9.00;99.90;;;;;;5055312;28;20736;-69
2021/04/16 15:54:14;;;;;;;;;;;9.10;99.90;;;;;;5066536;28;20019;-67
2021/04/16 15:56:41;;;;;;;;;;;9.20;99.90;;;;;;5059364;28;20023;-69
2021/04/16 15:59:10;;;;;;;;;;;9.40;99.90;;;;;;5059024;28;19912;-69
2021/04/16 16:01:35;;;;;;;;;;;9.50;99.90;;;;;;5056439;28;19920;-69
2021/04/16 16:04:01;;;;;;;;;;;9.50;99.90;;;;;;5058770;28;19920;-70
2021/04/16 16:06:27;;;;;;;;;;;9.40;99.90;;;;;;5057660;28;19923;-68
2021/04/16 16:08:55;;;;;;;;;;;9.20;99.90;;;;;;5060283;28;19935;-70
2021/04/16 16:11:22;;;;;;;;;;;9.10;99.90;;;;;;5066134;28;19997;-71
2021/04/16 16:13:48;;;;;;;;;;;8.90;99.90;;;;;;5061344;28;19920;-69
2021/04/16 16:16:16;;;;;;;;;;;8.60;99.90;;;;;;5068087;28;19968;-70
2021/04/16 16:18:42;;;;;;;;;;;8.50;99.90;;;;;;5068555;28;19938;-70
2021/04/16 16:21:11;;;;;;;;;;;8.30;99.90;;;;;;5064380;28;19917;-70
2021/04/16 16:23:36;;;;;;;;;;;8.20;99.90;;;;;;5059193;28;19913;-69
2021/04/16 16:26:02;;;;;;;;;;;8.00;99.90;;;;;;5050953;28;20274;-69
2021/04/16 16:28:29;;;;;;;;;;;7.70;99.90;;;;;;5051162;28;19920;-71
2021/04/16 16:30:56;;;;;;;;;;;7.60;99.90;;;;;;5057934;28;20285;-69
2021/04/16 16:33:22;;;;;;;;;;;7.60;99.90;;;;;;5058068;28;19913;-69
2021/04/16 16:35:48;;;;;;;;;;;7.50;99.90;;;;;;5057934;28;19913;-69
2021/04/16 16:38:14;;;;;;;;;;;7.40;99.90;;;;;;5060244;28;19921;-70
2021/04/16 16:40:40;;;;;;;;;;;7.30;99.90;;;;;;5046922;28;19975;-68
2021/04/16 16:43:09;;;;;;;;;;;7.20;99.90;;;;;;5067018;28;19917;-67
2021/04/16 16:45:36;;;;;;;;;;;7.10;99.90;;;;;;5062010;28;20589;-67
2021/04/16 16:48:04;;;;;;;;;;;7.10;99.90;;;;;;5062377;28;19916;-66
2021/04/16 16:50:31;;;;;;;;;;;7.00;99.90;;;;;;5056898;28;20238;-66
2021/04/16 16:52:57;;;;;;;;;;;6.90;99.90;;;;;;5062858;28;19917;-68
2021/04/16 16:55:23;;;;;;;;;;;6.80;99.90;;;;;;5065100;28;20338;-68
2021/04/16 16:57:49;;;;;;;;;;;6.80;99.90;;;;;;5066470;28;19971;-69
2021/04/16 17:00:16;;;;;;;;;;;6.70;99.90;;;;;;5059556;28;19921;-66
2021/04/16 17:02:42;;;;;;;;;;;6.70;99.90;;;;;;5060390;28;19912;-69
2021/04/16 17:05:08;;;;;;;;;;;6.50;99.90;;;;;;5063011;28;19942;-67
2021/04/16 17:07:34;;;;;;;;;;;6.50;99.90;;;;;;5053290;28;20606;-69
2021/04/16 17:09:59;;;;;;;;;;;6.50;99.90;;;;;;5063114;28;19912;-66